Time;durP1;ratioP1;P1;durP2;ratioP2;P2;SDS_P1;SDS_P2;PMS_P1;PMS_P2;Temp;Humidity;BMP_temperature;BMP_pressure;BME280_temperature;BME280_humidity;BME280_pressure;Samples;Min_cycle;Max_cycle;Signal;HPM_P1;HPM_P2
2023/10/28 00:09:28;;;;;;;7.90;6.80;;;;;;;7.74;100.00;97529.70;433946;1270;139509;-73
2023/10/28 00:19:34;;;;;;;8.30;7.30;;;;;;;7.70;100.00;97537.44;433603;1271;138916;-73
2023/10/28 00:29:40;;;;;;;6.60;6.00;;;;;;;7.68;100.00;97543.90;433559;1275;138940;-74
2023/10/28 00:39:46;;;;;;;8.80;7.00;;;;;;;7.63;100.00;97552.73;433450;1270;139490;-74
2023/10/28 00:49:53;;;;;;;9.20;8.30;;;;;;;7.60;100.00;97561.48;433345;1270;139292;-72
2023/10/28 01:00:00;;;;;;;9.60;8.60;;;;;;;7.61;100.00;97570.09;433563;1269;139051;-72
2023/10/28 01:10:08;;;;;;;10.70;9.30;;;;;;;7.59;100.00;97574.94;433261;1273;141267;-72
2023/10/28 01:20:14;;;;;;;11.90;9.70;;;;;;;7.60;100.00;97577.86;433321;1274;139583;-72
2023/10/28 01:30:20;;;;;;;11.90;9.40;;;;;;;7.54;100.00;97585.27;433498;1273;139164;-72
2023/10/28 01:40:26;;;;;;;12.20;10.10;;;;;;;7.43;100.00;97583.30;433590;1273;139612;-72
2023/10/28 01:50:32;;;;;;;10.00;8.90;;;;;;;7.30;100.00;97587.80;433379;1272;139877;-71
2023/10/28 02:00:38;;;;;;;11.60;9.30;;;;;;;7.22;100.00;97593.68;433303;1273;139174;-72
2023/10/28 02:10:44;;;;;;;9.20;8.30;;;;;;;7.16;100.00;97602.73;433727;1275;139188;-71
2023/10/28 02:20:50;;;;;;;10.30;8.80;;;;;;;7.10;100.00;97612.91;433782;1270;140298;-71
2023/10/28 02:30:56;;;;;;;10.80;8.00;;;;;;;7.08;100.00;97623.65;430551;1270;139567;-72
2023/10/28 02:41:01;;;;;;;9.00;8.10;;;;;;;7.08;100.00;97638.63;432011;1270;139820;-74
2023/10/28 02:51:08;;;;;;;9.20;8.00;;;;;;;7.06;100.00;97649.59;433245;1269;139260;-72
2023/10/28 03:01:15;;;;;;;10.70;8.10;;;;;;;7.05;100.00;97658.71;432555;1270;139116;-73
2023/10/28 03:11:21;;;;;;;7.50;6.30;;;;;;;7.02;100.00;97670.25;433897;1275;140087;-73
2023/10/28 03:21:26;;;;;;;7.60;6.70;;;;;;;7.01;100.00;97667.01;433627;1270;139263;-73
2023/10/28 03:31:32;;;;;;;7.60;6.50;;;;;;;7.00;100.00;97670.59;433424;1273;139283;-71
2023/10/28 03:41:39;;;;;;;5.90;5.20;;;;;;;6.93;100.00;97671.89;433634;1270;139298;-72
2023/10/28 03:51:45;;;;;;;4.30;3.80;;;;;;;6.86;100.00;97681.60;433559;1276;140444;-72
2023/10/28 04:01:51;;;;;;;6.20;5.10;;;;;;;6.81;100.00;97693.64;433423;1270;139153;-72
2023/10/28 04:12:00;;;;;;;5.20;4.80;;;;;;;6.75;100.00;97708.92;433428;1273;139241;-72
2023/10/28 04:22:06;;;;;;;4.10;3.60;;;;;;;6.64;100.00;97707.81;433308;1270;140314;-72
2023/10/28 04:32:12;;;;;;;3.30;3.00;;;;;;;6.56;100.00;97719.73;433617;1271;140356;-72
2023/10/28 04:42:19;;;;;;;4.00;3.60;;;;;;;6.51;100.00;97731.30;433714;1270;138952;-72
2023/10/28 04:52:25;;;;;;;4.30;3.90;;;;;;;6.49;100.00;97735.77;433646;1271;139592;-72
2023/10/28 05:02:31;;;;;;;4.90;4.10;;;;;;;6.43;100.00;97739.38;434125;1270;139171;-73
2023/10/28 05:12:38;;;;;;;7.90;5.50;;;;;;;6.39;100.00;97747.42;433596;1270;138938;-72
2023/10/28 05:22:45;;;;;;;5.50;4.70;;;;;;;6.34;100.00;97751.30;434008;1270;139066;-74
2023/10/28 05:32:51;;;;;;;7.30;5.80;;;;;;;6.36;100.00;97759.02;433713;1273;138988;-73
2023/10/28 05:42:57;;;;;;;6.80;5.80;;;;;;;6.40;100.00;97770.65;433981;1270;140087;-72
2023/10/28 05:53:03;;;;;;;9.50;7.30;;;;;;;6.42;100.00;97777.48;434251;1270;140386;-74
2023/10/28 06:03:10;;;;;;;12.60;8.70;;;;;;;6.51;100.00;97789.65;433992;1270;139180;-71
2023/10/28 06:13:16;;;;;;;11.90;8.00;;;;;;;6.60;100.00;97802.41;433787;1273;139510;-72
2023/10/28 06:23:22;;;;;;;13.30;9.00;;;;;;;6.66;100.00;97812.02;433594;1270;139088;-72
2023/10/28 06:33:28;;;;;;;11.10;7.80;;;;;;;6.71;100.00;97819.82;433807;1270;139465;-71
2023/10/28 06:43:34;;;;;;;13.20;7.80;;;;;;;6.77;100.00;97824.27;433751;1270;139840;-72
2023/10/28 06:53:40;;;;;;;13.80;8.80;;;;;;;6.86;100.00;97835.20;432850;1273;163517;-65
2023/10/28 07:03:46;;;;;;;15.90;10.70;;;;;;;6.93;100.00;97844.96;430855;1270;141301;-64
2023/10/28 07:13:52;;;;;;;18.70;12.30;;;;;;;7.01;100.00;97851.41;430756;1276;140323;-66
2023/10/28 07:24:00;;;;;;;16.40;11.20;;;;;;;7.13;100.00;97855.75;430182;1275;140493;-64
2023/10/28 07:34:07;;;;;;;16.50;12.10;;;;;;;7.22;100.00;97861.68;431243;1273;139923;-65
2023/10/28 07:44:14;;;;;;;20.90;11.70;;;;;;;7.24;100.00;97866.38;430436;1274;141298;-64
2023/10/28 07:54:20;;;;;;;18.30;10.90;;;;;;;7.32;100.00;97876.73;431248;1270;139732;-64
2023/10/28 08:04:26;;;;;;;16.70;10.70;;;;;;;7.37;100.00;97893.07;429808;1275;139720;-64
2023/10/28 08:14:34;;;;;;;14.20;9.80;;;;;;;7.36;100.00;97904.11;430001;1270;141045;-65
2023/10/28 08:24:41;;;;;;;13.80;11.40;;;;;;;7.40;100.00;97916.83;430719;1270;139971;-64
2023/10/28 08:34:48;;;;;;;16.20;11.70;;;;;;;7.52;100.00;97922.71;430407;1274;140487;-63
2023/10/28 08:44:58;;;;;;;16.70;11.50;;;;;;;7.60;100.00;97928.18;430261;1271;140285;-63
2023/10/28 08:55:04;;;;;;;15.40;12.10;;;;;;;7.67;100.00;97940.55;430473;1275;139572;-64
2023/10/28 09:05:11;;;;;;;18.40;12.80;;;;;;;7.88;100.00;97948.69;431108;1270;141239;-63
2023/10/28 09:15:17;;;;;;;15.60;11.80;;;;;;;8.15;100.00;97955.28;431009;1273;139984;-64
2023/10/28 09:25:23;;;;;;;16.10;13.20;;;;;;;8.32;100.00;97956.20;430281;1274;139828;-63
2023/10/28 09:35:32;;;;;;;14.80;12.90;;;;;;;8.32;100.00;97963.64;430820;1274;139774;-63
2023/10/28 09:45:38;;;;;;;18.00;15.00;;;;;;;8.39;100.00;97965.71;431393;1276;140168;-63
2023/10/28 09:55:46;;;;;;;15.00;13.40;;;;;;;8.61;100.00;97969.60;430532;1276;141355;-63
2023/10/28 10:05:53;;;;;;;16.40;14.60;;;;;;;8.79;100.00;97968.59;430719;1275;141528;-65
2023/10/28 10:16:03;;;;;;;16.70;14.40;;;;;;;8.92;100.00;97978.23;430425;1274;141691;-66
2023/10/28 10:26:20;;;;;;;16.50;14.80;;;;;;;9.10;100.00;97982.14;431531;1274;139807;-66
2023/10/28 10:36:29;;;;;;;19.50;15.90;;;;;;;9.42;100.00;97984.38;430608;1274;140827;-65
2023/10/28 10:46:35;;;;;;;13.30;10.50;;;;;;;9.71;100.00;97990.82;429900;1276;141383;-66
2023/10/28 10:56:40;;;;;;;6.00;5.40;;;;;;;10.40;100.00;97985.05;430069;1274;140499;-66
2023/10/28 11:06:46;;;;;;;6.80;6.10;;;;;;;10.71;100.00;97987.79;430031;1275;139457;-66
2023/10/28 11:16:53;;;;;;;8.90;5.90;;;;;;;10.81;100.00;97996.33;430138;1275;141067;-65
2023/10/28 11:26:59;;;;;;;6.20;4.80;;;;;;;11.07;100.00;98006.08;429996;1274;139591;-66
2023/10/28 11:37:07;;;;;;;6.00;4.50;;;;;;;11.37;100.00;98006.69;430113;1271;139537;-66
2023/10/28 11:47:14;;;;;;;4.80;4.40;;;;;;;11.76;100.00;98014.27;430599;1272;139736;-65
2023/10/28 11:57:20;;;;;;;4.80;4.10;;;;;;;12.02;100.00;98023.04;429624;1276;139734;-66
2023/10/28 12:07:26;;;;;;;4.40;4.00;;;;;;;12.10;100.00;98028.32;430033;1276;139883;-64
2023/10/28 12:17:31;;;;;;;3.80;3.20;;;;;;;11.91;100.00;98039.02;430061;1274;139496;-66
2023/10/28 12:27:37;;;;;;;3.80;3.00;;;;;;;11.99;100.00;98040.02;430028;1276;139601;-66
2023/10/28 12:37:44;;;;;;;5.80;2.80;;;;;;;12.15;100.00;98037.83;430239;1270;142205;-65
2023/10/28 12:47:50;;;;;;;3.70;2.40;;;;;;;12.25;100.00;98036.39;431636;1271;139922;-65
2023/10/28 12:57:56;;;;;;;2.50;1.90;;;;;;;12.18;100.00;98048.55;430220;1275;139583;-65
2023/10/28 13:08:03;;;;;;;4.00;2.10;;;;;;;12.06;100.00;98061.64;430542;1274;139720;-65
2023/10/28 13:18:11;;;;;;;3.50;2.20;;;;;;;12.25;100.00;98064.97;430668;1270;139366;-65
2023/10/28 13:28:17;;;;;;;8.20;4.50;;;;;;;12.21;100.00;98058.16;430116;1270;139253;-65
2023/10/28 13:38:22;;;;;;;5.50;5.00;;;;;;;12.03;100.00;98069.63;430320;1275;139506;-66
2023/10/28 13:48:28;;;;;;;6.80;5.00;;;;;;;11.95;100.00;98077.05;430237;1276;141375;-65
2023/10/28 13:58:35;;;;;;;7.20;5.00;;;;;;;11.77;100.00;98089.38;430512;1276;139723;-67
2023/10/28 14:08:41;;;;;;;7.20;5.40;;;;;;;11.73;100.00;98103.95;431881;1270;139368;-65
2023/10/28 14:19:07;;;;;;;7.90;6.40;;;;;;;11.68;100.00;98111.77;430351;1275;139882;-65
2023/10/28 14:29:14;;;;;;;10.50;7.70;;;;;;;11.44;100.00;98116.23;430736;1271;139596;-65
2023/10/28 14:39:20;;;;;;;12.20;8.70;;;;;;;11.26;100.00;98123.93;431660;1270;140029;-66
2023/10/28 14:49:28;;;;;;;9.70;8.80;;;;;;;11.09;100.00;98126.55;430238;1275;141736;-64
2023/10/28 14:59:32;;;;;;;;;;;;;;;10.89;100.00;98141.09;430522;1270;139925;-64
2023/10/28 15:09:53;;;;;;;12.10;9.50;;;;;;;10.73;100.00;98150.84;429955;1273;126545;-67
2023/10/28 15:19:59;;;;;;;11.20;9.40;;;;;;;10.61;100.00;98143.33;430182;1274;140217;-66
2023/10/28 15:30:10;;;;;;;14.20;11.30;;;;;;;10.47;100.00;98166.23;430067;1275;139891;-65
2023/10/28 15:40:19;;;;;;;16.50;11.90;;;;;;;10.24;100.00;98175.08;429967;1272;141034;-66
2023/10/28 15:50:25;;;;;;;15.80;13.50;;;;;;;10.09;100.00;98191.30;430125;1273;139841;-66
2023/10/28 16:00:32;;;;;;;13.50;12.20;;;;;;;9.97;100.00;98201.71;430095;1276;140060;-65
2023/10/28 16:10:38;;;;;;;16.60;14.80;;;;;;;9.86;100.00;98205.21;430158;1270;141275;-66
2023/10/28 16:20:44;;;;;;;17.40;15.60;;;;;;;9.75;100.00;98214.33;430100;1276;140688;-65
2023/10/28 16:30:50;;;;;;;20.10;16.10;;;;;;;9.65;100.00;98238.01;430513;1275;140789;-66
2023/10/28 16:40:58;;;;;;;23.30;19.60;;;;;;;9.57;100.00;98255.10;430588;1273;140120;-66
2023/10/28 16:51:10;;;;;;;21.80;18.10;;;;;;;9.49;100.00;98255.40;430365;1273;141101;-66
2023/10/28 17:01:16;;;;;;;22.90;20.60;;;;;;;9.39;100.00;98257.94;431119;1273;139746;-65
2023/10/28 17:11:25;;;;;;;22.20;18.00;;;;;;;9.31;100.00;98265.34;430479;1276;140311;-67
2023/10/28 17:21:31;;;;;;;23.50;21.10;;;;;;;9.25;100.00;98271.95;430309;1276;140785;-65
2023/10/28 17:31:37;;;;;;;19.30;17.30;;;;;;;9.21;100.00;98285.20;430762;1272;139772;-67
2023/10/28 17:41:48;;;;;;;22.70;20.30;;;;;;;9.20;100.00;98290.86;430246;1276;141421;-65
2023/10/28 17:51:55;;;;;;;22.80;19.70;;;;;;;9.19;100.00;98296.38;430125;1275;139978;-66
2023/10/28 18:02:01;;;;;;;25.60;21.90;;;;;;;9.18;100.00;98298.88;430395;1273;139704;-66
2023/10/28 18:12:09;;;;;;;52.10;34.40;;;;;;;9.16;100.00;98303.59;430527;1275;139563;-66
2023/10/28 18:22:14;;;;;;;;;;;;;;;9.14;100.00;98312.17;430194;1270;139613;-64
2023/10/28 18:32:22;;;;;;;54.10;33.20;;;;;;;9.15;100.00;98324.92;430289;1276;126969;-66
2023/10/28 18:42:26;;;;;;;;;;;;;;;9.18;100.00;98324.58;430521;1270;139617;-65
2023/10/28 18:52:34;;;;;;;15.20;13.50;;;;;;;9.20;100.00;98335.36;429952;1273;145112;-65
2023/10/28 19:02:40;;;;;;;14.30;12.40;;;;;;;9.20;100.00;98341.48;430041;1271;139645;-66
2023/10/28 19:12:46;;;;;;;14.10;12.10;;;;;;;9.15;100.00;98360.62;430150;1273;139642;-65
2023/10/28 19:22:53;;;;;;;16.00;12.60;;;;;;;9.10;100.00;98377.69;430029;1270;139821;-67
2023/10/28 19:32:59;;;;;;;16.80;10.90;;;;;;;9.07;100.00;98388.61;430077;1270;140545;-66
2023/10/28 19:43:06;;;;;;;12.30;10.40;;;;;;;9.03;100.00;98395.85;430232;1275;140821;-66
2023/10/28 19:53:12;;;;;;;15.40;10.80;;;;;;;9.03;100.00;98399.42;430093;1270;140735;-67
2023/10/28 20:03:18;;;;;;;13.60;10.50;;;;;;;9.01;100.00;98406.30;430158;1274;140148;-67
2023/10/28 20:13:24;;;;;;;18.50;11.40;;;;;;;8.99;100.00;98409.31;430009;1270;139831;-66
2023/10/28 20:23:30;;;;;;;13.80;12.10;;;;;;;8.93;100.00;98428.27;429911;1271;140198;-66
2023/10/28 20:33:36;;;;;;;18.40;13.30;;;;;;;8.89;100.00;98434.65;430029;1271;139723;-66
2023/10/28 20:43:43;;;;;;;20.70;15.30;;;;;;;8.89;100.00;98444.95;430501;1274;139617;-68
2023/10/28 20:53:48;;;;;;;19.10;14.80;;;;;;;8.92;100.00;98450.60;430172;1270;140145;-66
2023/10/28 21:03:54;;;;;;;21.10;15.80;;;;;;;8.88;100.00;98453.73;430672;1270;139959;-66
2023/10/28 21:14:01;;;;;;;15.20;13.70;;;;;;;8.79;100.00;98463.27;431039;1270;139942;-67
2023/10/28 21:24:10;;;;;;;16.60;13.10;;;;;;;8.62;100.00;98470.96;431307;1270;139664;-62
2023/10/28 21:34:17;;;;;;;16.90;13.60;;;;;;;8.51;100.00;98470.21;431691;1270;139627;-61
2023/10/28 21:44:23;;;;;;;18.70;15.00;;;;;;;8.36;100.00;98481.07;430345;1270;139993;-64
2023/10/28 21:54:29;;;;;;;22.50;15.40;;;;;;;8.25;100.00;98477.79;430115;1274;139659;-63
2023/10/28 22:04:35;;;;;;;18.30;13.70;;;;;;;8.24;100.00;98477.91;429863;1271;139494;-62
2023/10/28 22:14:41;;;;;;;20.80;15.30;;;;;;;8.28;100.00;98488.39;430233;1274;139924;-62
2023/10/28 22:24:47;;;;;;;19.50;15.60;;;;;;;8.31;100.00;98501.63;430210;1270;140031;-62
2023/10/28 22:34:53;;;;;;;31.30;26.20;;;;;;;8.34;100.00;98506.67;430014;1271;139969;-63
2023/10/28 22:45:00;;;;;;;19.00;14.60;;;;;;;8.34;100.00;98510.77;429861;1274;142929;-63
2023/10/28 22:55:07;;;;;;;15.00;12.90;;;;;;;8.31;100.00;98500.78;431336;1270;139688;-63
2023/10/28 23:05:13;;;;;;;18.00;15.50;;;;;;;8.20;100.00;98497.20;430419;1275;140069;-63
2023/10/28 23:15:19;;;;;;;14.40;12.80;;;;;;;8.08;100.00;98499.98;430408;1273;140519;-63
2023/10/28 23:25:25;;;;;;;17.70;14.40;;;;;;;8.05;100.00;98506.10;430034;1273;139694;-64
2023/10/28 23:35:31;;;;;;;17.30;13.40;;;;;;;8.08;100.00;98513.67;430408;1273;139599;-63
2023/10/28 23:45:38;;;;;;;14.00;11.30;;;;;;;8.08;100.00;98505.89;430230;1274;140121;-62
2023/10/28 23:55:44;;;;;;;12.70;10.50;;;;;;;8.03;100.00;98502.94;429859;1274;139310;-63
